sensor_id;sensor_type;location;lat;lon;timestamp;pressure;altitude;pressure_sealevel;temperature;humidity
16595;BME280;8410;52.532;13.336;2024-02-26T00:00:44;99956.16;;;15.69;49.90
16595;BME280;8410;52.532;13.336;2024-02-26T00:03:13;99956.34;;;15.58;49.72
16595;BME280;8410;52.532;13.336;2024-02-26T00:05:40;99953.09;;;15.47;49.80
16595;BME280;8410;52.532;13.336;2024-02-26T00:08:09;99953.66;;;15.19;50.04
16595;BME280;8410;52.532;13.336;2024-02-26T00:10:37;99950.22;;;15.19;50.28
16595;BME280;8410;52.532;13.336;2024-02-26T00:13:04;99948.28;;;15.29;50.07
16595;BME280;8410;52.532;13.336;2024-02-26T00:15:32;99950.56;;;14.99;50.95
16595;BME280;8410;52.532;13.336;2024-02-26T00:18:01;99948.81;;;15.01;50.85
16595;BME280;8410;52.532;13.336;2024-02-26T00:20:29;99945.94;;;15.15;50.23
16595;BME280;8410;52.532;13.336;2024-02-26T00:22:56;99943.56;;;15.04;50.25
16595;BME280;8410;52.532;13.336;2024-02-26T00:25:25;99941.63;;;15.15;50.61
16595;BME280;8410;52.532;13.336;2024-02-26T00:27:53;99948.09;;;14.91;51.03
16595;BME280;8410;52.532;13.336;2024-02-26T00:30:20;99945.94;;;14.68;51.07
16595;BME280;8410;52.532;13.336;2024-02-26T00:32:49;99944.47;;;14.50;51.65
16595;BME280;8410;52.532;13.336;2024-02-26T00:35:16;99942.88;;;14.42;51.15
16595;BME280;8410;52.532;13.336;2024-02-26T00:37:46;99941.88;;;14.52;51.76
16595;BME280;8410;52.532;13.336;2024-02-26T00:40:14;99941.50;;;14.75;51.19
16595;BME280;8410;52.532;13.336;2024-02-26T00:42:43;99930.88;;;14.89;51.20
16595;BME280;8410;52.532;13.336;2024-02-26T00:45:12;99932.94;;;14.71;51.71
16595;BME280;8410;52.532;13.336;2024-02-26T00:47:40;99932.22;;;14.63;51.48
16595;BME280;8410;52.532;13.336;2024-02-26T00:50:09;99933.13;;;14.61;51.15
16595;BME280;8410;52.532;13.336;2024-02-26T00:52:37;99925.72;;;14.34;52.19
16595;BME280;8410;52.532;13.336;2024-02-26T00:55:06;99925.34;;;14.62;51.26
16595;BME280;8410;52.532;13.336;2024-02-26T00:57:34;99926.97;;;14.66;51.66
16595;BME280;8410;52.532;13.336;2024-02-26T01:00:03;99926.13;;;14.66;51.83
16595;BME280;8410;52.532;13.336;2024-02-26T01:02:31;99917.44;;;14.68;51.62
16595;BME280;8410;52.532;13.336;2024-02-26T01:04:59;99928.59;;;14.73;51.45
16595;BME280;8410;52.532;13.336;2024-02-26T01:07:26;99922.31;;;14.85;50.99
16595;BME280;8410;52.532;13.336;2024-02-26T01:09:54;99930.88;;;14.90;50.68
16595;BME280;8410;52.532;13.336;2024-02-26T01:12:21;99931.81;;;14.85;51.33
16595;BME280;8410;52.532;13.336;2024-02-26T01:14:49;99933.38;;;14.95;50.22
16595;BME280;8410;52.532;13.336;2024-02-26T01:17:18;99918.13;;;15.23;50.50
16595;BME280;8410;52.532;13.336;2024-02-26T01:19:45;99926.31;;;15.03;50.22
16595;BME280;8410;52.532;13.336;2024-02-26T01:22:13;99923.53;;;14.64;50.96
16595;BME280;8410;52.532;13.336;2024-02-26T01:24:40;99925.50;;;14.50;50.72
16595;BME280;8410;52.532;13.336;2024-02-26T01:27:08;99930.66;;;14.53;51.49
16595;BME280;8410;52.532;13.336;2024-02-26T01:29:36;99927.41;;;14.39;52.01
16595;BME280;8410;52.532;13.336;2024-02-26T01:32:04;99926.47;;;14.43;51.09
16595;BME280;8410;52.532;13.336;2024-02-26T01:34:33;99931.69;;;14.40;51.57
16595;BME280;8410;52.532;13.336;2024-02-26T01:37:03;99923.78;;;14.49;51.66
16595;BME280;8410;52.532;13.336;2024-02-26T01:39:31;99916.66;;;14.63;50.80
16595;BME280;8410;52.532;13.336;2024-02-26T01:41:58;99915.75;;;14.66;51.15
16595;BME280;8410;52.532;13.336;2024-02-26T01:44:26;99914.09;;;14.62;51.11
16595;BME280;8410;52.532;13.336;2024-02-26T01:46:54;99909.84;;;14.03;52.91
16595;BME280;8410;52.532;13.336;2024-02-26T01:49:22;99903.03;;;14.52;52.84
16595;BME280;8410;52.532;13.336;2024-02-26T01:51:51;99906.03;;;14.78;51.57
16595;BME280;8410;52.532;13.336;2024-02-26T01:54:19;99904.00;;;14.43;51.73
16595;BME280;8410;52.532;13.336;2024-02-26T01:56:47;99908.50;;;14.33;52.09
16595;BME280;8410;52.532;13.336;2024-02-26T01:59:14;99913.44;;;14.49;51.22
16595;BME280;8410;52.532;13.336;2024-02-26T02:01:44;99919.16;;;14.15;52.34
16595;BME280;8410;52.532;13.336;2024-02-26T02:04:12;99919.25;;;14.09;52.14
16595;BME280;8410;52.532;13.336;2024-02-26T02:06:41;99919.00;;;14.24;52.21
16595;BME280;8410;52.532;13.336;2024-02-26T02:09:11;99928.28;;;13.80;52.61
16595;BME280;8410;52.532;13.336;2024-02-26T02:11:39;99924.38;;;14.12;52.52
16595;BME280;8410;52.532;13.336;2024-02-26T02:14:06;99924.84;;;14.37;52.07
16595;BME280;8410;52.532;13.336;2024-02-26T02:16:34;99919.94;;;14.19;51.54
16595;BME280;8410;52.532;13.336;2024-02-26T02:19:01;99911.00;;;13.82;53.20
16595;BME280;8410;52.532;13.336;2024-02-26T02:21:30;99916.72;;;14.04;52.36
16595;BME280;8410;52.532;13.336;2024-02-26T02:23:58;99917.63;;;14.02;53.42
16595;BME280;8410;52.532;13.336;2024-02-26T02:26:26;99916.66;;;14.09;53.22
16595;BME280;8410;52.532;13.336;2024-02-26T02:28:53;99914.88;;;14.11;52.78
16595;BME280;8410;52.532;13.336;2024-02-26T02:31:21;99916.44;;;14.21;53.13
16595;BME280;8410;52.532;13.336;2024-02-26T02:33:49;99909.31;;;13.78;53.01
16595;BME280;8410;52.532;13.336;2024-02-26T02:36:16;99923.22;;;13.71;54.17
16595;BME280;8410;52.532;13.336;2024-02-26T02:38:50;99916.88;;;13.92;53.48
16595;BME280;8410;52.532;13.336;2024-02-26T02:41:18;99918.56;;;13.95;53.12
16595;BME280;8410;52.532;13.336;2024-02-26T02:43:45;99913.34;;;14.01;53.28
16595;BME280;8410;52.532;13.336;2024-02-26T02:46:13;99921.75;;;14.13;52.79
16595;BME280;8410;52.532;13.336;2024-02-26T02:48:41;99919.03;;;14.21;52.76
16595;BME280;8410;52.532;13.336;2024-02-26T02:51:09;99913.81;;;14.24;52.50
16595;BME280;8410;52.532;13.336;2024-02-26T02:53:37;99918.25;;;14.16;52.40
16595;BME280;8410;52.532;13.336;2024-02-26T02:56:06;99920.97;;;14.08;52.90
16595;BME280;8410;52.532;13.336;2024-02-26T02:58:34;99927.66;;;14.23;52.38
16595;BME280;8410;52.532;13.336;2024-02-26T03:01:01;99925.28;;;14.08;52.75
16595;BME280;8410;52.532;13.336;2024-02-26T03:03:29;99926.75;;;14.26;52.46
16595;BME280;8410;52.532;13.336;2024-02-26T03:05:57;99929.78;;;13.97;53.03
16595;BME280;8410;52.532;13.336;2024-02-26T03:08:25;99933.09;;;14.05;52.45
16595;BME280;8410;52.532;13.336;2024-02-26T03:10:52;99931.34;;;14.05;52.72
16595;BME280;8410;52.532;13.336;2024-02-26T03:13:21;99932.22;;;14.06;53.08
16595;BME280;8410;52.532;13.336;2024-02-26T03:15:49;99941.47;;;14.22;52.86
16595;BME280;8410;52.532;13.336;2024-02-26T03:18:16;99933.72;;;14.22;52.84
16595;BME280;8410;52.532;13.336;2024-02-26T03:20:44;99932.94;;;14.17;53.16
16595;BME280;8410;52.532;13.336;2024-02-26T03:23:12;99930.28;;;14.20;53.00
16595;BME280;8410;52.532;13.336;2024-02-26T03:25:41;99927.91;;;14.05;52.68
16595;BME280;8410;52.532;13.336;2024-02-26T03:28:09;99930.88;;;13.79;52.97
16595;BME280;8410;52.532;13.336;2024-02-26T03:30:38;99929.94;;;13.84;53.89
16595;BME280;8410;52.532;13.336;2024-02-26T03:33:05;99923.09;;;13.80;53.27
16595;BME280;8410;52.532;13.336;2024-02-26T03:35:33;99916.19;;;13.82;53.09
16595;BME280;8410;52.532;13.336;2024-02-26T03:38:01;99921.06;;;14.04;52.91
16595;BME280;8410;52.532;13.336;2024-02-26T03:40:29;99927.38;;;13.83;53.69
16595;BME280;8410;52.532;13.336;2024-02-26T03:42:57;99929.41;;;13.58;53.66
16595;BME280;8410;52.532;13.336;2024-02-26T03:45:24;99922.78;;;14.02;53.60
16595;BME280;8410;52.532;13.336;2024-02-26T03:47:54;99930.56;;;14.03;54.01
16595;BME280;8410;52.532;13.336;2024-02-26T03:50:21;99930.91;;;14.36;52.82
16595;BME280;8410;52.532;13.336;2024-02-26T03:52:49;99931.66;;;14.43;52.84
16595;BME280;8410;52.532;13.336;2024-02-26T03:55:17;99934.41;;;14.32;53.22
16595;BME280;8410;52.532;13.336;2024-02-26T03:57:47;99936.31;;;14.22;53.33
16595;BME280;8410;52.532;13.336;2024-02-26T04:00:15;99945.72;;;14.26;52.80
16595;BME280;8410;52.532;13.336;2024-02-26T04:02:44;99948.13;;;14.37;53.23
16595;BME280;8410;52.532;13.336;2024-02-26T04:05:13;99946.56;;;14.28;53.24
16595;BME280;8410;52.532;13.336;2024-02-26T04:07:41;99948.06;;;14.42;53.02
16595;BME280;8410;52.532;13.336;2024-02-26T04:10:09;99952.63;;;14.26;53.55
16595;BME280;8410;52.532;13.336;2024-02-26T04:12:38;99950.94;;;14.25;53.05
16595;BME280;8410;52.532;13.336;2024-02-26T04:15:07;99950.31;;;14.06;53.93
16595;BME280;8410;52.532;13.336;2024-02-26T04:17:35;99952.78;;;14.17;53.62
16595;BME280;8410;52.532;13.336;2024-02-26T04:20:03;99959.63;;;14.21;53.20
16595;BME280;8410;52.532;13.336;2024-02-26T04:22:33;99954.38;;;14.25;53.45
16595;BME280;8410;52.532;13.336;2024-02-26T04:25:00;99955.22;;;14.24;53.52
16595;BME280;8410;52.532;13.336;2024-02-26T04:27:29;99963.78;;;14.29;53.41
16595;BME280;8410;52.532;13.336;2024-02-26T04:29:57;99954.03;;;14.47;52.74
16595;BME280;8410;52.532;13.336;2024-02-26T04:32:24;99962.75;;;14.41;53.48
16595;BME280;8410;52.532;13.336;2024-02-26T04:34:52;99964.84;;;14.16;53.63
16595;BME280;8410;52.532;13.336;2024-02-26T04:37:19;99967.22;;;14.31;54.26
16595;BME280;8410;52.532;13.336;2024-02-26T04:39:48;99965.53;;;14.30;53.28
16595;BME280;8410;52.532;13.336;2024-02-26T04:42:16;99977.56;;;14.31;54.03
16595;BME280;8410;52.532;13.336;2024-02-26T04:44:44;99970.69;;;14.30;53.69
16595;BME280;8410;52.532;13.336;2024-02-26T04:47:12;99978.41;;;14.32;52.81
16595;BME280;8410;52.532;13.336;2024-02-26T04:49:40;99981.56;;;14.54;53.46
16595;BME280;8410;52.532;13.336;2024-02-26T04:52:08;99984.44;;;14.32;53.13
16595;BME280;8410;52.532;13.336;2024-02-26T04:54:35;99982.22;;;14.09;53.23
16595;BME280;8410;52.532;13.336;2024-02-26T04:57:04;99984.91;;;14.00;53.28
16595;BME280;8410;52.532;13.336;2024-02-26T04:59:32;99985.06;;;13.89;53.84
16595;BME280;8410;52.532;13.336;2024-02-26T05:01:59;99987.81;;;13.76;53.95
16595;BME280;8410;52.532;13.336;2024-02-26T05:04:27;99983.50;;;13.79;55.55
16595;BME280;8410;52.532;13.336;2024-02-26T05:06:54;99989.94;;;14.11;53.80
16595;BME280;8410;52.532;13.336;2024-02-26T05:09:23;99996.47;;;13.73;54.09
16595;BME280;8410;52.532;13.336;2024-02-26T05:11:50;99998.59;;;14.10;54.21
16595;BME280;8410;52.532;13.336;2024-02-26T05:14:19;99996.69;;;14.21;53.20
16595;BME280;8410;52.532;13.336;2024-02-26T05:16:47;99998.44;;;14.19;53.76
16595;BME280;8410;52.532;13.336;2024-02-26T05:19:15;100010.13;;;13.84;54.58
16595;BME280;8410;52.532;13.336;2024-02-26T05:21:43;100010.13;;;13.86;54.91
16595;BME280;8410;52.532;13.336;2024-02-26T05:24:11;100006.91;;;13.67;54.57
16595;BME280;8410;52.532;13.336;2024-02-26T05:26:38;100016.22;;;13.80;54.23
16595;BME280;8410;52.532;13.336;2024-02-26T05:29:05;100023.38;;;13.60;55.29
16595;BME280;8410;52.532;13.336;2024-02-26T05:31:34;100018.06;;;13.72;55.28
16595;BME280;8410;52.532;13.336;2024-02-26T05:34:02;100019.81;;;13.70;55.48
16595;BME280;8410;52.532;13.336;2024-02-26T05:36:30;100017.88;;;13.87;54.28
16595;BME280;8410;52.532;13.336;2024-02-26T05:39:00;100009.59;;;14.26;54.20
16595;BME280;8410;52.532;13.336;2024-02-26T05:41:27;100015.59;;;14.28;53.53
16595;BME280;8410;52.532;13.336;2024-02-26T05:43:55;100025.44;;;13.29;55.68
16595;BME280;8410;52.532;13.336;2024-02-26T05:46:23;100031.53;;;13.17;55.64
16595;BME280;8410;52.532;13.336;2024-02-26T05:48:53;100029.59;;;12.34;58.07
16595;BME280;8410;52.532;13.336;2024-02-26T05:51:21;100033.28;;;11.84;60.30
16595;BME280;8410;52.532;13.336;2024-02-26T05:53:49;100042.00;;;11.46;60.99
16595;BME280;8410;52.532;13.336;2024-02-26T05:56:21;100034.13;;;11.81;61.84
16595;BME280;8410;52.532;13.336;2024-02-26T05:58:48;100039.78;;;12.55;59.09
16595;BME280;8410;52.532;13.336;2024-02-26T06:01:16;100046.81;;;12.38;58.55
16595;BME280;8410;52.532;13.336;2024-02-26T06:03:44;100045.75;;;12.65;59.11
16595;BME280;8410;52.532;13.336;2024-02-26T06:06:13;100051.69;;;12.75;58.27
16595;BME280;8410;52.532;13.336;2024-02-26T06:08:42;100054.69;;;12.12;60.76
16595;BME280;8410;52.532;13.336;2024-02-26T06:11:09;100063.41;;;11.89;60.21
16595;BME280;8410;52.532;13.336;2024-02-26T06:13:37;100065.19;;;11.52;60.61
16595;BME280;8410;52.532;13.336;2024-02-26T06:16:05;100055.72;;;11.51;62.35
16595;BME280;8410;52.532;13.336;2024-02-26T06:18:33;100055.63;;;11.85;61.12
16595;BME280;8410;52.532;13.336;2024-02-26T06:21:01;100057.38;;;11.70;60.99
16595;BME280;8410;52.532;13.336;2024-02-26T06:23:30;100061.56;;;12.11;60.69
16595;BME280;8410;52.532;13.336;2024-02-26T06:25:57;100061.75;;;11.55;62.45
16595;BME280;8410;52.532;13.336;2024-02-26T06:28:25;100072.88;;;11.74;61.66
16595;BME280;8410;52.532;13.336;2024-02-26T06:30:52;100061.44;;;12.34;60.97
16595;BME280;8410;52.532;13.336;2024-02-26T06:33:20;100061.31;;;12.56;58.43
16595;BME280;8410;52.532;13.336;2024-02-26T06:35:48;100065.84;;;13.36;57.81
16595;BME280;8410;52.532;13.336;2024-02-26T06:38:15;100069.72;;;13.78;55.42
16595;BME280;8410;52.532;13.336;2024-02-26T06:40:45;100073.13;;;13.83;55.58
16595;BME280;8410;52.532;13.336;2024-02-26T06:43:13;100070.13;;;13.38;56.94
16595;BME280;8410;52.532;13.336;2024-02-26T06:45:41;100075.69;;;12.92;57.98
16595;BME280;8410;52.532;13.336;2024-02-26T06:48:08;100083.16;;;11.70;61.79
16595;BME280;8410;52.532;13.336;2024-02-26T06:50:36;100082.97;;;12.33;60.69
16595;BME280;8410;52.532;13.336;2024-02-26T06:53:04;100081.31;;;12.19;60.87
16595;BME280;8410;52.532;13.336;2024-02-26T06:55:33;100093.16;;;12.60;60.51
16595;BME280;8410;52.532;13.336;2024-02-26T06:58:02;100089.91;;;13.45;57.47
16595;BME280;8410;52.532;13.336;2024-02-26T07:00:29;100090.16;;;14.00;56.10
16595;BME280;8410;52.532;13.336;2024-02-26T07:02:57;100089.22;;;14.07;55.95
16595;BME280;8410;52.532;13.336;2024-02-26T07:05:25;100092.28;;;14.35;55.40
16595;BME280;8410;52.532;13.336;2024-02-26T07:07:52;100095.78;;;14.32;55.71
16595;BME280;8410;52.532;13.336;2024-02-26T07:10:20;100096.06;;;14.12;54.72
16595;BME280;8410;52.532;13.336;2024-02-26T07:12:47;100108.19;;;14.09;55.14
16595;BME280;8410;52.532;13.336;2024-02-26T07:15:16;100101.75;;;13.66;55.76
16595;BME280;8410;52.532;13.336;2024-02-26T07:17:45;100105.25;;;14.37;55.96
16595;BME280;8410;52.532;13.336;2024-02-26T07:20:14;100094.50;;;14.64;54.24
16595;BME280;8410;52.532;13.336;2024-02-26T07:22:44;100107.63;;;13.81;54.64
16595;BME280;8410;52.532;13.336;2024-02-26T07:25:12;100102.50;;;14.46;55.20
16595;BME280;8410;52.532;13.336;2024-02-26T07:27:40;100109.38;;;13.80;55.68
16595;BME280;8410;52.532;13.336;2024-02-26T07:30:08;100114.03;;;13.48;58.79
16595;BME280;8410;52.532;13.336;2024-02-26T07:32:37;100098.09;;;14.54;55.55
16595;BME280;8410;52.532;13.336;2024-02-26T07:35:05;100099.41;;;14.84;54.40
16595;BME280;8410;52.532;13.336;2024-02-26T07:37:33;100097.91;;;14.69;55.56
16595;BME280;8410;52.532;13.336;2024-02-26T07:40:01;100107.13;;;14.25;56.94
16595;BME280;8410;52.532;13.336;2024-02-26T07:42:29;100107.50;;;13.92;56.06
16595;BME280;8410;52.532;13.336;2024-02-26T07:44:57;100109.78;;;13.40;57.05
16595;BME280;8410;52.532;13.336;2024-02-26T07:47:25;100108.28;;;14.01;56.24
16595;BME280;8410;52.532;13.336;2024-02-26T07:49:53;100105.09;;;13.79;57.38
16595;BME280;8410;52.532;13.336;2024-02-26T07:52:21;100106.22;;;14.28;56.11
16595;BME280;8410;52.532;13.336;2024-02-26T07:54:49;100099.50;;;14.13;56.21
16595;BME280;8410;52.532;13.336;2024-02-26T07:57:16;100103.66;;;13.49;56.22
16595;BME280;8410;52.532;13.336;2024-02-26T07:59:44;100109.66;;;13.50;58.51
16595;BME280;8410;52.532;13.336;2024-02-26T08:02:16;100104.53;;;13.46;59.46
16595;BME280;8410;52.532;13.336;2024-02-26T08:04:43;100111.84;;;13.89;56.96
16595;BME280;8410;52.532;13.336;2024-02-26T08:07:12;100104.28;;;13.73;58.00
16595;BME280;8410;52.532;13.336;2024-02-26T08:09:41;100109.25;;;13.93;56.16
16595;BME280;8410;52.532;13.336;2024-02-26T08:12:09;100117.94;;;13.85;57.21
16595;BME280;8410;52.532;13.336;2024-02-26T08:14:36;100114.50;;;13.83;58.45
16595;BME280;8410;52.532;13.336;2024-02-26T08:17:04;100114.13;;;14.17;57.93
16595;BME280;8410;52.532;13.336;2024-02-26T08:19:31;100106.94;;;14.38;55.88
16595;BME280;8410;52.532;13.336;2024-02-26T08:22:02;100100.84;;;15.53;54.14
16595;BME280;8410;52.532;13.336;2024-02-26T08:24:32;100108.91;;;14.19;58.49
16595;BME280;8410;52.532;13.336;2024-02-26T08:26:59;100106.22;;;14.90;54.52
16595;BME280;8410;52.532;13.336;2024-02-26T08:29:27;100110.97;;;15.17;55.69
16595;BME280;8410;52.532;13.336;2024-02-26T08:31:54;100108.56;;;16.03;52.70
16595;BME280;8410;52.532;13.336;2024-02-26T08:34:22;100101.19;;;16.26;53.44
16595;BME280;8410;52.532;13.336;2024-02-26T08:36:50;100104.38;;;15.49;52.65
16595;BME280;8410;52.532;13.336;2024-02-26T08:39:18;100108.44;;;16.09;54.14
16595;BME280;8410;52.532;13.336;2024-02-26T08:41:47;100101.31;;;16.20;52.28
16595;BME280;8410;52.532;13.336;2024-02-26T08:44:14;100101.97;;;15.40;53.12
16595;BME280;8410;52.532;13.336;2024-02-26T08:46:42;100105.84;;;15.14;53.87
16595;BME280;8410;52.532;13.336;2024-02-26T08:49:10;100106.59;;;14.65;55.98
16595;BME280;8410;52.532;13.336;2024-02-26T08:51:41;100105.28;;;14.33;57.18
16595;BME280;8410;52.532;13.336;2024-02-26T08:54:09;100106.22;;;14.90;55.38
16595;BME280;8410;52.532;13.336;2024-02-26T08:56:36;100108.53;;;14.48;56.24
16595;BME280;8410;52.532;13.336;2024-02-26T08:59:05;100098.16;;;15.08;55.01
16595;BME280;8410;52.532;13.336;2024-02-26T09:01:33;100094.78;;;15.54;54.13
16595;BME280;8410;52.532;13.336;2024-02-26T09:04:01;100109.47;;;14.44;55.85
16595;BME280;8410;52.532;13.336;2024-02-26T09:06:28;100091.41;;;15.49;54.73
16595;BME280;8410;52.532;13.336;2024-02-26T09:08:56;100092.28;;;15.96;53.08
16595;BME280;8410;52.532;13.336;2024-02-26T09:11:27;100105.84;;;15.14;54.56
16595;BME280;8410;52.532;13.336;2024-02-26T09:13:55;100105.25;;;14.37;56.32
16595;BME280;8410;52.532;13.336;2024-02-26T09:16:24;100092.81;;;15.65;53.62
16595;BME280;8410;52.532;13.336;2024-02-26T09:18:51;100097.44;;;15.51;55.40
16595;BME280;8410;52.532;13.336;2024-02-26T09:21:19;100100.75;;;15.08;55.20
16595;BME280;8410;52.532;13.336;2024-02-26T09:23:50;100107.16;;;14.19;56.62
16595;BME280;8410;52.532;13.336;2024-02-26T09:26:18;100103.41;;;15.56;54.60
16595;BME280;8410;52.532;13.336;2024-02-26T09:28:45;100109.25;;;14.61;55.37
16595;BME280;8410;52.532;13.336;2024-02-26T09:31:14;100102.16;;;16.21;54.07
16595;BME280;8410;52.532;13.336;2024-02-26T09:33:44;100105.69;;;16.17;53.16
16595;BME280;8410;52.532;13.336;2024-02-26T09:36:12;100110.09;;;16.13;53.44
16595;BME280;8410;52.532;13.336;2024-02-26T09:38:40;100110.63;;;16.69;51.33
16595;BME280;8410;52.532;13.336;2024-02-26T09:41:21;100103.69;;;16.31;51.68
16595;BME280;8410;52.532;13.336;2024-02-26T09:43:53;100098.09;;;16.49;51.68
16595;BME280;8410;52.532;13.336;2024-02-26T09:46:23;100100.25;;;17.41;49.79
16595;BME280;8410;52.532;13.336;2024-02-26T09:48:52;100098.56;;;18.04;48.83
16595;BME280;8410;52.532;13.336;2024-02-26T09:51:22;100102.41;;;16.89;50.05
16595;BME280;8410;52.532;13.336;2024-02-26T09:53:52;100100.09;;;16.77;51.16
16595;BME280;8410;52.532;13.336;2024-02-26T09:56:21;100114.59;;;16.06;52.35
16595;BME280;8410;52.532;13.336;2024-02-26T09:58:50;100116.22;;;16.10;53.31
16595;BME280;8410;52.532;13.336;2024-02-26T10:01:21;100121.25;;;16.18;52.94
16595;BME280;8410;52.532;13.336;2024-02-26T10:03:55;100115.09;;;15.79;53.96
16595;BME280;8410;52.532;13.336;2024-02-26T10:06:26;100114.53;;;16.50;51.60
16595;BME280;8410;52.532;13.336;2024-02-26T10:08:55;100123.50;;;15.92;53.01
16595;BME280;8410;52.532;13.336;2024-02-26T10:11:25;100123.44;;;15.96;53.42
16595;BME280;8410;52.532;13.336;2024-02-26T10:13:54;100129.16;;;15.65;53.50
16595;BME280;8410;52.532;13.336;2024-02-26T10:16:22;100115.50;;;16.85;50.98
16595;BME280;8410;52.532;13.336;2024-02-26T10:18:51;100128.63;;;15.96;52.78
16595;BME280;8410;52.532;13.336;2024-02-26T10:21:23;100113.44;;;17.33;51.26
16595;BME280;8410;52.532;13.336;2024-02-26T10:23:50;100114.09;;;17.74;53.25
16595;BME280;8410;52.532;13.336;2024-02-26T10:26:19;100119.25;;;16.70;53.41
16595;BME280;8410;52.532;13.336;2024-02-26T10:28:46;100124.16;;;16.03;53.63
16595;BME280;8410;52.532;13.336;2024-02-26T10:31:20;100122.72;;;16.30;53.51
16595;BME280;8410;52.532;13.336;2024-02-26T10:33:48;100120.72;;;16.44;52.64
16595;BME280;8410;52.532;13.336;2024-02-26T10:36:16;100120.72;;;16.44;52.87
16595;BME280;8410;52.532;13.336;2024-02-26T10:38:45;100122.09;;;16.19;52.52
16595;BME280;8410;52.532;13.336;2024-02-26T10:41:14;100113.53;;;16.56;51.74
16595;BME280;8410;52.532;13.336;2024-02-26T10:43:42;100116.19;;;16.91;51.63
16595;BME280;8410;52.532;13.336;2024-02-26T10:46:09;100114.97;;;16.69;52.84
16595;BME280;8410;52.532;13.336;2024-02-26T10:48:38;100112.91;;;16.85;50.83
16595;BME280;8410;52.532;13.336;2024-02-26T10:51:09;100110.56;;;17.77;49.68
16595;BME280;8410;52.532;13.336;2024-02-26T10:53:41;100116.03;;;18.30;48.20
16595;BME280;8410;52.532;13.336;2024-02-26T10:56:12;100103.03;;;19.14;46.26
16595;BME280;8410;52.532;13.336;2024-02-26T10:58:45;100106.50;;;19.13;45.84
16595;BME280;8410;52.532;13.336;2024-02-26T11:01:13;100125.91;;;16.44;50.94
16595;BME280;8410;52.532;13.336;2024-02-26T11:03:42;100115.25;;;16.95;50.57
16595;BME280;8410;52.532;13.336;2024-02-26T11:06:11;100115.91;;;17.04;50.15
16595;BME280;8410;52.532;13.336;2024-02-26T11:08:39;100119.78;;;17.23;50.14
16595;BME280;8410;52.532;13.336;2024-02-26T11:11:08;100116.41;;;17.54;49.35
16595;BME280;8410;52.532;13.336;2024-02-26T11:13:42;100113.44;;;17.99;48.19
16595;BME280;8410;52.532;13.336;2024-02-26T11:16:11;100116.16;;;17.63;48.76
16595;BME280;8410;52.532;13.336;2024-02-26T11:18:39;100119.31;;;17.74;49.63
16595;BME280;8410;52.532;13.336;2024-02-26T11:21:10;100120.06;;;17.79;49.23
16595;BME280;8410;52.532;13.336;2024-02-26T11:23:37;100114.16;;;18.05;47.95
16595;BME280;8410;52.532;13.336;2024-02-26T11:26:07;100099.59;;;19.39;46.45
16595;BME280;8410;52.532;13.336;2024-02-26T11:28:38;100121.13;;;17.72;47.84
16595;BME280;8410;52.532;13.336;2024-02-26T11:31:07;100112.72;;;17.61;48.32
16595;BME280;8410;52.532;13.336;2024-02-26T11:33:36;100097.66;;;18.92;46.55
16595;BME280;8410;52.532;13.336;2024-02-26T11:36:07;100104.91;;;19.36;46.19
16595;BME280;8410;52.532;13.336;2024-02-26T11:38:36;100107.78;;;19.02;46.31
16595;BME280;8410;52.532;13.336;2024-02-26T11:41:04;100114.75;;;18.15;47.85
16595;BME280;8410;52.532;13.336;2024-02-26T11:43:49;100113.53;;;18.27;49.15
16595;BME280;8410;52.532;13.336;2024-02-26T11:46:29;100125.94;;;17.88;48.92
16595;BME280;8410;52.532;13.336;2024-02-26T11:49:02;100115.38;;;17.94;49.14
16595;BME280;8410;52.532;13.336;2024-02-26T11:51:33;100112.41;;;17.73;49.56
16595;BME280;8410;52.532;13.336;2024-02-26T11:54:01;100112.97;;;17.17;50.16
16595;BME280;8410;52.532;13.336;2024-02-26T11:56:28;100118.56;;;17.36;49.98
16595;BME280;8410;52.532;13.336;2024-02-26T11:59:02;100116.06;;;17.66;48.17
16595;BME280;8410;52.532;13.336;2024-02-26T12:01:45;100115.50;;;17.88;48.94
16595;BME280;8410;52.532;13.336;2024-02-26T12:04:19;100110.06;;;18.56;46.77
16595;BME280;8410;52.532;13.336;2024-02-26T12:06:51;100117.19;;;17.56;48.65
16595;BME280;8410;52.532;13.336;2024-02-26T12:09:32;100117.34;;;18.45;46.93
16595;BME280;8410;52.532;13.336;2024-02-26T12:12:01;100115.69;;;17.81;48.31
16595;BME280;8410;52.532;13.336;2024-02-26T12:14:29;100119.47;;;17.68;48.36
16595;BME280;8410;52.532;13.336;2024-02-26T12:17:01;100109.34;;;17.92;48.09
16595;BME280;8410;52.532;13.336;2024-02-26T12:19:33;100116.31;;;17.57;48.18
16595;BME280;8410;52.532;13.336;2024-02-26T12:22:03;100118.19;;;18.45;47.40
16595;BME280;8410;52.532;13.336;2024-02-26T12:24:33;100111.94;;;19.34;45.28
16595;BME280;8410;52.532;13.336;2024-02-26T12:27:01;100114.28;;;17.68;47.99
16595;BME280;8410;52.532;13.336;2024-02-26T12:29:29;100119.09;;;17.83;47.05
16595;BME280;8410;52.532;13.336;2024-02-26T12:31:57;100121.94;;;18.07;46.56
16595;BME280;8410;52.532;13.336;2024-02-26T12:34:26;100126.72;;;17.57;47.24
16595;BME280;8410;52.532;13.336;2024-02-26T12:36:54;100125.78;;;17.25;47.99
16595;BME280;8410;52.532;13.336;2024-02-26T12:39:22;100129.44;;;17.18;49.25
16595;BME280;8410;52.532;13.336;2024-02-26T12:41:49;100125.16;;;17.84;47.90
16595;BME280;8410;52.532;13.336;2024-02-26T12:44:17;100122.63;;;17.14;48.52
16595;BME280;8410;52.532;13.336;2024-02-26T12:46:44;100133.13;;;18.09;46.40
16595;BME280;8410;52.532;13.336;2024-02-26T12:49:15;100117.06;;;19.10;44.14
16595;BME280;8410;52.532;13.336;2024-02-26T12:51:47;100118.56;;;19.17;44.73
16595;BME280;8410;52.532;13.336;2024-02-26T12:54:14;100139.63;;;17.27;46.46
16595;BME280;8410;52.532;13.336;2024-02-26T12:56:42;100126.38;;;17.69;46.29
16595;BME280;8410;52.532;13.336;2024-02-26T12:59:09;100120.63;;;17.91;45.31
16595;BME280;8410;52.532;13.336;2024-02-26T13:01:37;100122.56;;;18.45;44.41